Time;durP1;ratioP1;P1;durP2;ratioP2;P2;SDS_P1;SDS_P2;PMS_P1;PMS_P2;Temp;Humidity;BMP_temperature;BMP_pressure;BME280_temperature;BME280_humidity;BME280_pressure;Samples;Min_cycle;Max_cycle;Signal;HPM_P1;HPM_P2
2023/01/14 00:00:25;;;;;;;16.70;6.20;;;9.70;99.90;;;;;;5066327;28;20048;-74
2023/01/14 00:02:51;;;;;;;15.50;6.05;;;9.70;99.90;;;;;;5058324;28;20025;-75
2023/01/14 00:05:20;;;;;;;15.10;6.43;;;9.60;99.90;;;;;;5061946;28;20103;-74
2023/01/14 00:07:45;;;;;;;13.00;5.95;;;9.60;99.90;;;;;;5064725;28;20112;-74
2023/01/14 00:10:11;;;;;;;12.52;5.70;;;9.60;99.90;;;;;;5058358;28;20160;-74
2023/01/14 00:12:37;;;;;;;15.60;6.50;;;9.60;99.90;;;;;;5060414;28;20033;-73
2023/01/14 00:15:03;;;;;;;15.35;6.82;;;9.50;99.90;;;;;;5058838;28;20025;-74
2023/01/14 00:17:29;;;;;;;13.68;6.22;;;9.50;99.90;;;;;;5065119;28;20021;-74
2023/01/14 00:19:55;;;;;;;15.82;6.68;;;9.60;99.90;;;;;;5066624;28;20471;-74
2023/01/14 00:22:21;;;;;;;16.48;7.07;;;9.70;99.90;;;;;;5059738;28;20103;-74
2023/01/14 00:24:47;;;;;;;16.55;6.72;;;9.70;99.90;;;;;;5062027;28;20043;-74
2023/01/14 00:27:15;;;;;;;18.70;6.35;;;9.80;99.90;;;;;;5063584;28;20036;-74
2023/01/14 00:29:41;;;;;;;14.98;6.57;;;9.70;99.90;;;;;;5060916;28;20039;-74
2023/01/14 00:32:07;;;;;;;14.07;6.63;;;9.60;99.90;;;;;;5061183;28;20498;-74
2023/01/14 00:34:38;;;;;;;15.27;6.82;;;9.70;99.90;;;;;;5065926;28;20024;-74
2023/01/14 00:37:05;;;;;;;16.88;6.82;;;9.70;99.90;;;;;;5067318;28;20040;-75
2023/01/14 00:39:31;;;;;;;18.50;7.07;;;9.60;99.90;;;;;;5066664;28;20527;-74
2023/01/14 00:41:56;;;;;;;14.98;6.68;;;9.60;99.90;;;;;;5063522;28;20103;-74
2023/01/14 00:44:22;;;;;;;16.15;7.25;;;9.60;99.90;;;;;;5069297;28;20525;-73
2023/01/14 00:46:51;;;;;;;16.52;7.15;;;9.50;99.90;;;;;;5065179;28;20676;-73
2023/01/14 00:49:19;;;;;;;17.92;6.75;;;9.50;99.90;;;;;;5059946;28;20079;-74
2023/01/14 00:51:46;;;;;;;16.98;7.10;;;9.40;99.90;;;;;;5064358;28;20068;-73
2023/01/14 00:54:14;;;;;;;15.32;7.13;;;9.40;99.90;;;;;;5063099;28;20361;-74
2023/01/14 00:56:40;;;;;;;16.52;6.82;;;9.40;99.90;;;;;;5066239;28;20036;-74
2023/01/14 00:59:06;;;;;;;16.60;7.40;;;9.30;99.90;;;;;;5061358;28;20095;-73
2023/01/14 01:01:32;;;;;;;19.45;7.53;;;9.30;99.90;;;;;;5064545;28;20021;-73
2023/01/14 01:03:58;;;;;;;16.67;6.60;;;9.20;99.90;;;;;;5063646;28;20020;-74
2023/01/14 01:06:26;;;;;;;16.20;6.53;;;9.20;99.90;;;;;;5059432;28;20024;-73
2023/01/14 01:08:58;;;;;;;13.50;5.93;;;9.20;99.90;;;;;;5062938;28;20045;-74
2023/01/14 01:11:24;;;;;;;15.50;6.25;;;9.10;99.90;;;;;;5062398;28;20136;-74
2023/01/14 01:13:51;;;;;;;13.13;6.18;;;9.20;99.90;;;;;;5061526;28;20037;-74
2023/01/14 01:16:23;;;;;;;14.02;6.25;;;9.20;99.90;;;;;;5062868;28;20111;-74
2023/01/14 01:18:50;;;;;;;15.90;5.97;;;9.30;99.90;;;;;;5059126;28;20020;-73
2023/01/14 01:21:17;;;;;;;12.35;5.68;;;9.40;99.90;;;;;;5060551;28;20025;-74
2023/01/14 01:23:45;;;;;;;16.95;6.22;;;9.20;99.90;;;;;;5063012;28;20673;-74
2023/01/14 01:26:15;;;;;;;13.95;5.28;;;9.20;99.90;;;;;;5057699;28;20471;-74
2023/01/14 01:28:41;;;;;;;14.07;5.95;;;9.20;99.90;;;;;;5049505;28;20476;-74
2023/01/14 01:31:11;;;;;;;16.70;6.13;;;9.30;99.90;;;;;;5059996;28;20044;-73
2023/01/14 01:33:38;;;;;;;15.30;6.47;;;9.40;99.90;;;;;;5062688;28;20429;-74
2023/01/14 01:36:12;;;;;;;15.23;6.40;;;9.40;99.90;;;;;;5061371;28;20052;-73
2023/01/14 01:38:38;;;;;;;15.48;6.60;;;9.40;99.90;;;;;;5057496;28;20032;-74
2023/01/14 01:41:05;;;;;;;13.85;6.40;;;9.40;99.90;;;;;;5068917;28;20013;-74
2023/01/14 01:43:32;;;;;;;15.00;6.40;;;9.60;99.90;;;;;;5059617;28;20035;-74
2023/01/14 01:45:59;;;;;;;17.73;6.40;;;9.60;99.90;;;;;;5061008;28;20032;-73
2023/01/14 01:48:24;;;;;;;;;;;9.50;99.90;;;;;;5061898;28;20616;-74
2023/01/14 01:50:57;;;;;;;12.50;5.93;;;9.50;99.90;;;;;;5067255;28;19908;-73
2023/01/14 01:53:26;;;;;;;14.57;5.65;;;9.40;99.90;;;;;;5061541;28;20025;-74
2023/01/14 01:55:55;;;;;;;14.57;6.30;;;9.30;99.90;;;;;;5057989;28;20438;-73
2023/01/14 01:58:22;;;;;;;13.05;6.32;;;9.20;99.90;;;;;;5067123;28;20074;-73
2023/01/14 02:00:48;;;;;;;11.52;5.35;;;9.20;99.90;;;;;;5060046;28;20531;-74
2023/01/14 02:03:24;;;;;;;14.98;6.60;;;9.30;99.90;;;;;;5062673;28;20071;-74
2023/01/14 02:05:51;;;;;;;11.27;5.95;;;9.30;99.90;;;;;;5058906;28;20025;-73
2023/01/14 02:08:17;;;;;;;15.93;6.15;;;9.30;99.90;;;;;;5060111;28;20036;-74
2023/01/14 02:11:00;;;;;;;14.10;6.35;;;9.20;99.90;;;;;;5067505;28;20094;-73
2023/01/14 02:13:51;;;;;;;14.63;5.68;;;9.20;99.90;;;;;;5061604;28;20033;-72
2023/01/14 02:16:24;;;;;;;14.80;6.15;;;9.20;99.90;;;;;;5066261;28;20028;-74
2023/01/14 02:19:00;;;;;;;14.15;5.55;;;9.40;99.90;;;;;;5061048;28;20047;-73
2023/01/14 02:21:36;;;;;;;13.73;6.00;;;9.40;99.90;;;;;;5058006;28;20044;-73
2023/01/14 02:24:37;;;;;;;14.25;5.70;;;9.30;99.90;;;;;;5059496;28;20025;-72
2023/01/14 02:27:34;;;;;;;12.13;5.05;;;9.20;99.90;;;;;;5057598;28;20048;-73
2023/01/14 02:30:11;;;;;;;14.50;5.57;;;9.20;99.90;;;;;;5059457;28;20423;-73
2023/01/14 02:33:16;;;;;;;11.73;5.82;;;9.20;99.90;;;;;;5059191;28;20021;-73
2023/01/14 02:36:29;;;;;;;12.43;5.25;;;9.20;99.90;;;;;;5061379;28;20032;-73
2023/01/14 02:39:10;;;;;;;11.30;5.18;;;9.20;99.90;;;;;;5026988;28;20030;-73
2023/01/14 02:44:38;;;;;;;12.82;4.82;;;9.10;99.90;;;;;;5062197;28;20071;-73
2023/01/14 02:47:16;;;;;;;10.98;5.22;;;9.10;99.90;;;;;;5060460;28;20025;-74
2023/01/14 02:49:44;;;;;;;14.10;5.47;;;9.20;99.90;;;;;;5063265;28;20033;-72
2023/01/14 02:52:14;;;;;;;13.15;5.00;;;9.30;99.90;;;;;;5065296;28;20032;-73
2023/01/14 02:54:40;;;;;;;12.45;5.63;;;9.30;99.90;;;;;;5058618;28;20032;-74
2023/01/14 02:57:32;;;;;;;14.23;5.40;;;9.20;99.90;;;;;;5059575;28;20029;-73
2023/01/14 03:00:39;;;;;;;13.35;5.03;;;9.10;99.90;;;;;;5060111;28;20025;-74
2023/01/14 03:03:26;;;;;;;13.02;5.28;;;9.20;99.90;;;;;;5058218;28;20063;-73
2023/01/14 03:06:09;;;;;;;11.43;4.88;;;9.20;99.90;;;;;;5074349;28;20028;-74
2023/01/14 03:08:35;;;;;;;12.57;4.50;;;9.00;99.90;;;;;;5058590;28;20068;-73
2023/01/14 03:11:05;;;;;;;11.75;5.03;;;8.90;99.90;;;;;;5065580;28;20108;-73
2023/01/14 03:13:34;;;;;;;13.73;5.80;;;8.90;99.90;;;;;;5066324;28;20032;-73
2023/01/14 03:16:24;;;;;;;14.52;5.00;;;8.90;99.90;;;;;;5060756;28;20080;-73
2023/01/14 03:19:08;;;;;;;13.95;5.13;;;8.90;99.90;;;;;;5066035;28;20459;-73
2023/01/14 03:21:40;;;;;;;14.80;5.00;;;8.90;99.90;;;;;;5065779;28;20054;-73
2023/01/14 03:24:22;;;;;;;11.25;5.03;;;8.90;99.90;;;;;;5063319;28;20037;-74
2023/01/14 03:26:49;;;;;;;11.68;5.30;;;8.90;99.90;;;;;;5069399;28;20437;-73
2023/01/14 03:29:22;;;;;;;11.00;5.00;;;8.90;99.90;;;;;;5060856;28;20470;-73
2023/01/14 03:32:23;;;;;;;14.57;5.60;;;8.90;99.90;;;;;;5063840;28;20025;-73
2023/01/14 03:35:08;;;;;;;12.45;5.20;;;8.90;99.90;;;;;;5062013;28;20353;-73
2023/01/14 03:37:38;;;;;;;11.57;5.30;;;9.00;99.90;;;;;;5061068;28;20029;-72
2023/01/14 03:40:08;;;;;;;13.18;5.68;;;8.90;99.90;;;;;;5061881;28;20049;-74
2023/01/14 03:42:41;;;;;;;15.38;6.18;;;9.00;99.90;;;;;;5065947;28;20024;-73
2023/01/14 03:45:14;;;;;;;12.07;5.78;;;8.90;99.90;;;;;;5067116;28;20033;-73
2023/01/14 03:47:41;;;;;;;10.55;5.40;;;8.90;99.90;;;;;;5065951;28;20052;-73
2023/01/14 03:50:14;;;;;;;12.05;5.00;;;8.90;99.90;;;;;;5065225;28;20043;-73
2023/01/14 03:52:49;;;;;;;11.95;5.38;;;8.80;99.90;;;;;;5064819;28;20032;-74
2023/01/14 03:55:41;;;;;;;15.98;5.57;;;8.80;99.90;;;;;;5063587;28;20036;-73
2023/01/14 03:58:12;;;;;;;;;;;8.80;99.90;;;;;;5074433;28;20111;-73
2023/01/14 04:00:48;;;;;;;12.70;4.93;;;8.90;99.90;;;;;;5064097;28;19916;-73
2023/01/14 04:03:15;;;;;;;10.43;4.65;;;8.90;99.90;;;;;;5061380;28;20052;-73
2023/01/14 04:05:41;;;;;;;14.07;5.10;;;8.80;99.90;;;;;;5069326;28;20472;-73
2023/01/14 04:08:09;;;;;;;13.23;5.50;;;8.80;99.90;;;;;;5066027;28;20052;-73
2023/01/14 04:10:35;;;;;;;12.98;4.70;;;8.80;99.90;;;;;;5066052;28;20463;-73
2023/01/14 04:15:45;;;;;;;12.85;4.75;;;8.90;99.90;;;;;;5060481;28;20052;-73
2023/01/14 04:18:12;;;;;;;13.48;5.07;;;8.90;99.90;;;;;;5065470;28;20021;-73
2023/01/14 04:20:38;;;;;;;;;;;9.10;99.90;;;;;;5065952;28;20017;-72
2023/01/14 04:23:05;;;;;;;13.27;5.70;;;9.10;99.90;;;;;;5060091;28;19922;-73
2023/01/14 04:25:31;;;;;;;12.65;5.30;;;9.20;99.90;;;;;;5060849;28;20025;-73
2023/01/14 04:27:57;;;;;;;12.35;5.80;;;9.10;99.90;;;;;;5062750;28;20205;-73
2023/01/14 04:30:24;;;;;;;11.52;5.43;;;9.10;99.90;;;;;;5055767;28;20794;-73
2023/01/14 04:32:50;;;;;;;12.73;5.18;;;9.00;99.90;;;;;;5059692;28;20055;-73
2023/01/14 04:35:16;;;;;;;12.35;5.70;;;8.90;99.90;;;;;;5066713;28;20060;-74
2023/01/14 04:37:42;;;;;;;15.95;5.53;;;9.10;99.90;;;;;;5062760;28;20032;-73
2023/01/14 04:40:08;;;;;;;14.18;6.35;;;9.10;99.90;;;;;;5061317;28;20601;-73
2023/01/14 04:42:34;;;;;;;15.52;5.95;;;9.10;99.90;;;;;;5068660;28;20048;-74
2023/01/14 04:45:03;;;;;;;11.48;5.30;;;9.10;99.90;;;;;;5063078;28;20049;-73
2023/01/14 04:47:31;;;;;;;14.48;5.70;;;9.20;99.90;;;;;;5064262;28;20032;-73
2023/01/14 04:49:57;;;;;;;12.27;5.25;;;9.20;99.90;;;;;;5062348;28;20059;-73
2023/01/14 04:52:24;;;;;;;11.50;5.25;;;9.10;99.90;;;;;;5063473;28;20025;-72
2023/01/14 04:54:51;;;;;;;13.07;5.28;;;9.10;99.90;;;;;;5062600;28;20728;-73
2023/01/14 04:57:17;;;;;;;10.85;4.90;;;9.10;99.90;;;;;;5060648;28;20025;-74
2023/01/14 04:59:43;;;;;;;11.40;5.40;;;9.10;99.90;;;;;;5064970;28;20078;-73
2023/01/14 05:02:10;;;;;;;13.50;5.68;;;9.10;99.90;;;;;;5062610;28;20059;-73
2023/01/14 05:04:37;;;;;;;12.65;5.35;;;9.20;99.90;;;;;;5063601;28;20025;-73
2023/01/14 05:07:05;;;;;;;10.02;4.82;;;9.20;99.90;;;;;;5057763;28;20043;-73
2023/01/14 05:09:32;;;;;;;9.57;4.93;;;9.20;99.90;;;;;;5060336;28;20029;-74
2023/01/14 05:11:58;;;;;;;;;;;9.20;99.90;;;;;;5064308;28;20029;-73
2023/01/14 05:14:24;;;;;;;10.68;4.95;;;9.30;99.90;;;;;;5062589;28;20377;-73
2023/01/14 05:16:50;;;;;;;11.15;5.20;;;9.40;99.90;;;;;;5063061;28;20116;-73
2023/01/14 05:19:15;;;;;;;9.52;4.43;;;9.40;99.90;;;;;;5057407;28;20874;-73
2023/01/14 05:21:42;;;;;;;13.50;5.72;;;9.40;99.90;;;;;;5058848;28;20108;-74
2023/01/14 05:24:09;;;;;;;10.55;4.60;;;9.50;99.90;;;;;;5061916;28;20020;-73
2023/01/14 05:26:35;;;;;;;10.43;5.22;;;9.50;99.90;;;;;;5065980;28;20032;-76
2023/01/14 05:29:01;;;;;;;10.93;5.15;;;9.50;99.90;;;;;;5066049;28;20029;-74
2023/01/14 05:31:28;;;;;;;11.00;4.97;;;9.60;99.90;;;;;;5059863;28;20032;-74
2023/01/14 05:33:54;;;;;;;11.80;4.93;;;9.60;99.90;;;;;;5059590;28;20029;-74
2023/01/14 05:36:20;;;;;;;11.25;5.72;;;9.60;99.90;;;;;;5058645;28;20032;-74
2023/01/14 05:38:46;;;;;;;10.63;5.38;;;9.50;99.90;;;;;;5070618;28;20037;-73
2023/01/14 05:41:13;;;;;;;13.02;5.60;;;9.50;99.90;;;;;;5057177;28;20543;-74
2023/01/14 05:46:23;;;;;;;12.10;5.35;;;9.70;99.90;;;;;;5058432;28;19980;-73
2023/01/14 05:48:49;;;;;;;11.45;4.68;;;9.70;99.90;;;;;;5064707;28;20115;-72
2023/01/14 05:51:15;;;;;;;10.77;5.25;;;9.70;99.90;;;;;;5054442;28;20075;-74
2023/01/14 05:53:40;;;;;;;10.35;5.10;;;9.70;99.90;;;;;;5062831;28;20027;-73
2023/01/14 05:56:07;;;;;;;11.63;5.13;;;9.60;99.90;;;;;;5059615;28;20041;-74
2023/01/14 05:58:33;;;;;;;13.18;5.63;;;9.60;99.90;;;;;;5058948;28;20055;-73
2023/01/14 06:06:47;;;;;;;13.30;6.22;;;9.40;99.90;;;;;;5060491;28;20039;-73
2023/01/14 06:09:15;;;;;;;12.82;6.07;;;9.40;99.90;;;;;;5049997;28;20090;-73
2023/01/14 06:12:57;;;;;;;14.23;5.53;;;9.30;99.90;;;;;;5061481;28;20086;-73
2023/01/14 06:14:33;;;;;;;13.15;5.93;;;9.30;99.90;;;;;;5059514;28;20036;-73
2023/01/14 06:17:05;;;;;;;9.25;3.88;;;9.50;99.90;;;;;;5063672;28;20039;-73
2023/01/14 06:19:30;;;;;;;9.70;4.15;;;9.80;99.90;;;;;;5066022;28;20016;-71
2023/01/14 06:21:56;;;;;;;10.90;4.57;;;10.00;99.90;;;;;;5064985;28;20021;-74
2023/01/14 06:24:22;;;;;;;9.68;3.83;;;10.00;99.90;;;;;;5063027;28;20037;-73
2023/01/14 06:26:48;;;;;;;8.73;3.60;;;10.20;99.90;;;;;;5060306;28;20096;-73
2023/01/14 06:29:13;;;;;;;6.88;3.00;;;10.30;99.90;;;;;;5063413;28;20029;-73
2023/01/14 06:31:41;;;;;;;9.88;3.88;;;10.50;99.90;;;;;;5063626;28;20029;-74
2023/01/14 06:34:06;;;;;;;;;;;10.40;99.90;;;;;;5060149;28;20521;-73
2023/01/14 06:36:34;;;;;;;6.28;2.53;;;10.50;99.90;;;;;;5059067;28;19912;-74
2023/01/14 06:38:59;;;;;;;;;;;10.50;99.90;;;;;;5059361;28;20031;-74
2023/01/14 06:41:25;;;;;;;7.32;2.78;;;10.70;99.90;;;;;;5063505;28;19999;-72
2023/01/14 06:43:51;;;;;;;6.45;2.92;;;10.60;99.90;;;;;;5058560;28;20021;-73
2023/01/14 06:46:17;;;;;;;8.15;3.40;;;10.50;99.90;;;;;;5058614;28;20453;-73
2023/01/14 06:48:44;;;;;;;9.23;3.70;;;10.50;99.90;;;;;;5063472;28;20043;-73
2023/01/14 06:51:16;;;;;;;7.45;3.25;;;10.50;99.90;;;;;;5057867;28;20032;-73
2023/01/14 06:53:42;;;;;;;7.55;3.17;;;10.50;99.90;;;;;;5065562;28;20094;-73
2023/01/14 06:56:13;;;;;;;6.80;3.25;;;10.40;99.90;;;;;;5066202;28;20064;-73
2023/01/14 06:58:39;;;;;;;5.63;2.45;;;10.60;99.90;;;;;;5063103;28;20027;-73
2023/01/14 07:01:06;;;;;;;5.10;2.00;;;10.80;99.90;;;;;;5059225;28;20628;-74
2023/01/14 07:03:32;;;;;;;5.53;2.28;;;10.80;99.90;;;;;;5064799;28;20025;-74
2023/01/14 07:05:59;;;;;;;6.22;2.03;;;10.90;99.90;;;;;;5059805;28;20025;-73
2023/01/14 07:08:26;;;;;;;5.70;2.63;;;10.90;99.90;;;;;;5062014;28;20061;-74
2023/01/14 07:10:52;;;;;;;4.72;2.13;;;10.90;99.90;;;;;;5056954;28;20428;-74
2023/01/14 07:13:19;;;;;;;5.50;2.00;;;11.00;99.90;;;;;;5058584;28;20025;-73
2023/01/14 07:15:45;;;;;;;4.30;1.80;;;11.00;99.90;;;;;;5062389;28;20025;-73
2023/01/14 07:18:11;;;;;;;7.15;2.42;;;11.00;99.90;;;;;;5061814;28;20021;-73
2023/01/14 07:20:38;;;;;;;5.85;2.33;;;11.00;99.90;;;;;;5058824;28;20080;-74
2023/01/14 07:23:04;;;;;;;4.20;1.60;;;11.00;99.90;;;;;;5060398;28;20399;-73
2023/01/14 07:25:30;;;;;;;6.68;2.20;;;10.90;99.90;;;;;;5057279;28;20484;-73
2023/01/14 07:27:56;;;;;;;4.40;1.98;;;11.00;99.90;;;;;;5059869;28;20048;-73
2023/01/14 07:30:22;;;;;;;6.53;2.30;;;11.10;99.90;;;;;;5055355;28;20025;-72
2023/01/14 07:32:48;;;;;;;6.20;2.30;;;11.00;99.90;;;;;;5061713;28;20023;-74
2023/01/14 07:35:15;;;;;;;4.57;1.75;;;11.00;99.90;;;;;;5058763;28;20403;-74
2023/01/14 07:37:41;;;;;;;6.45;2.28;;;11.10;99.90;;;;;;5057133;28;20093;-74
2023/01/14 07:40:08;;;;;;;5.05;2.33;;;11.10;99.90;;;;;;5058566;28;20080;-74
2023/01/14 07:42:33;;;;;;;5.38;2.30;;;11.20;99.90;;;;;;5065926;28;20464;-73
2023/01/14 07:44:59;;;;;;;5.25;2.47;;;11.10;99.90;;;;;;5060264;28;20028;-73
2023/01/14 07:47:25;;;;;;;5.18;2.38;;;11.20;99.90;;;;;;5059031;28;20029;-75
2023/01/14 07:49:51;;;;;;;5.45;2.58;;;11.10;99.90;;;;;;5063336;28;20086;-74
2023/01/14 07:52:17;;;;;;;8.13;3.28;;;11.10;99.90;;;;;;5059217;28;20020;-74
2023/01/14 07:54:43;;;;;;;6.70;3.22;;;11.00;99.90;;;;;;5056827;28;20082;-74
2023/01/14 07:57:10;;;;;;;6.72;3.20;;;10.90;99.90;;;;;;5059292;28;20060;-76
2023/01/14 07:59:36;;;;;;;;;;;10.90;99.90;;;;;;5068588;28;20082;-73
2023/01/14 08:02:02;;;;;;;6.32;2.83;;;10.90;99.90;;;;;;5066813;28;19916;-73
2023/01/14 08:04:28;;;;;;;6.38;2.80;;;10.90;99.90;;;;;;5065145;28;20048;-73
2023/01/14 08:06:56;;;;;;;6.93;3.00;;;10.90;99.90;;;;;;5067123;28;20043;-74
2023/01/14 08:09:22;;;;;;;6.35;2.63;;;11.00;99.90;;;;;;5063229;28;20483;-74
2023/01/14 08:11:48;;;;;;;6.55;2.47;;;11.10;99.90;;;;;;5064890;28;20375;-73
2023/01/14 08:14:14;;;;;;;8.13;2.97;;;11.10;99.90;;;;;;5077275;28;20033;-75
2023/01/14 08:16:40;;;;;;;5.72;2.42;;;11.10;99.90;;;;;;5061956;28;20041;-73
2023/01/14 08:19:06;;;;;;;5.28;2.33;;;11.20;99.90;;;;;;5059786;28;20463;-74
2023/01/14 08:21:32;;;;;;;5.68;3.03;;;11.20;99.90;;;;;;5066410;28;20017;-74
2023/01/14 08:23:58;;;;;;;8.02;2.92;;;11.30;99.90;;;;;;5060053;28;20029;-73
2023/01/14 08:26:24;;;;;;;5.63;2.75;;;11.40;99.90;;;;;;5058345;28;20472;-75
2023/01/14 08:28:50;;;;;;;7.20;2.70;;;11.90;99.90;;;;;;5058992;28;20455;-74
2023/01/14 08:31:17;;;;;;;5.65;2.78;;;12.60;99.90;;;;;;5059837;28;20115;-75
2023/01/14 08:33:44;;;;;;;5.80;2.80;;;12.90;99.60;;;;;;5050523;28;20036;-74
2023/01/14 08:36:13;;;;;;;5.88;2.50;;;13.70;99.00;;;;;;5043538;28;20025;-74
2023/01/14 08:38:40;;;;;;;6.22;2.70;;;14.30;97.90;;;;;;5062295;28;20048;-73
2023/01/14 08:41:08;;;;;;;5.78;2.70;;;14.90;97.40;;;;;;5067633;28;20032;-76
2023/01/14 08:43:34;;;;;;;4.60;2.22;;;15.10;97.30;;;;;;5063322;28;20025;-74
2023/01/14 08:46:01;;;;;;;5.10;2.42;;;14.80;96.60;;;;;;5069788;28;20025;-74
2023/01/14 08:48:27;;;;;;;5.72;2.90;;;14.90;96.70;;;;;;5059241;28;20025;-73
2023/01/14 08:50:53;;;;;;;5.47;2.70;;;15.20;96.70;;;;;;5059542;28;20040;-73
2023/01/14 08:53:20;;;;;;;5.75;2.75;;;15.10;97.00;;;;;;5062385;28;20383;-74
2023/01/14 08:55:46;;;;;;;6.65;3.30;;;15.00;96.40;;;;;;5060556;28;20033;-73
2023/01/14 08:58:13;;;;;;;6.30;4.20;;;15.50;96.20;;;;;;5064667;28;20024;-73
2023/01/14 09:00:39;;;;;;;7.57;4.05;;;15.50;95.90;;;;;;5063597;28;20055;-73
2023/01/14 09:03:04;;;;;;;7.85;3.28;;;15.30;96.10;;;;;;5058883;28;20020;-74
2023/01/14 09:05:32;;;;;;;6.80;3.10;;;14.60;96.30;;;;;;5059589;28;20549;-74
2023/01/14 09:19:01;;;;;;;6.53;2.67;;;12.80;98.40;;;;;;5061084;28;20074;-73
2023/01/14 09:21:27;;;;;;;5.70;2.65;;;13.10;98.20;;;;;;5061308;28;20021;-73
2023/01/14 09:23:53;;;;;;;5.90;2.53;;;13.30;97.40;;;;;;5061837;28;20024;-73
2023/01/14 09:26:20;;;;;;;5.20;2.55;;;13.30;97.00;;;;;;5058937;28;20081;-73
2023/01/14 09:28:46;;;;;;;;;;;13.10;97.40;;;;;;5065637;28;20036;-71
2023/01/14 09:31:13;;;;;;;6.80;3.20;;;12.90;97.70;;;;;;5056563;28;19916;-73
2023/01/14 09:33:39;;;;;;;10.55;4.03;;;12.90;97.80;;;;;;5063867;28;20025;-73
2023/01/14 09:36:05;;;;;;;7.82;3.65;;;12.80;98.30;;;;;;5062077;28;20054;-73
2023/01/14 09:38:32;;;;;;;5.72;2.88;;;13.00;98.10;;;;;;5058349;28;20099;-74
2023/01/14 09:40:58;;;;;;;;;;;13.40;97.30;;;;;;5063475;28;20021;-75
2023/01/14 09:43:25;;;;;;;6.75;3.45;;;14.10;96.50;;;;;;5062120;28;19913;-72
2023/01/14 09:46:00;;;;;;;6.65;4.20;;;14.80;95.80;;;;;;5063035;28;20020;-73
2023/01/14 09:48:29;;;;;;;6.72;3.80;;;14.50;95.80;;;;;;5062646;28;20896;-73
2023/01/14 09:51:07;;;;;;;6.93;3.50;;;14.70;95.70;;;;;;5060650;28;20100;-74
2023/01/14 09:53:57;;;;;;;5.68;2.95;;;14.60;95.60;;;;;;5062575;28;20103;-73
2023/01/14 09:56:39;;;;;;;5.15;2.85;;;14.70;95.80;;;;;;5062388;28;20525;-74
2023/01/14 09:59:17;;;;;;;7.55;2.58;;;14.30;95.80;;;;;;5047720;28;20060;-74
2023/01/14 10:02:15;;;;;;;5.35;2.65;;;14.00;96.10;;;;;;5049435;28;20050;-74
2023/01/14 10:04:52;;;;;;;4.25;1.95;;;14.00;96.50;;;;;;5064162;28;20028;-73
2023/01/14 10:07:20;;;;;;;5.40;2.90;;;13.90;96.60;;;;;;5063870;28;20517;-74
2023/01/14 10:09:55;;;;;;;5.80;3.10;;;14.10;96.60;;;;;;5060814;28;20029;-73
2023/01/14 10:12:36;;;;;;;4.82;2.58;;;13.90;96.80;;;;;;5062553;28;20032;-74
2023/01/14 10:15:41;;;;;;;5.55;2.83;;;14.20;96.70;;;;;;5058718;28;20021;-73
2023/01/14 10:18:18;;;;;;;4.90;2.75;;;14.10;96.70;;;;;;5063985;28;20063;-73
2023/01/14 10:20:54;;;;;;;6.35;2.80;;;14.10;96.90;;;;;;5060786;28;20021;-73
2023/01/14 10:23:40;;;;;;;6.68;3.45;;;14.10;96.80;;;;;;5067732;28;20033;-73
2023/01/14 10:26:18;;;;;;;5.80;2.78;;;14.20;96.80;;;;;;5062196;28;20410;-73
2023/01/14 10:28:48;;;;;;;6.82;2.80;;;14.20;96.80;;;;;;5059258;28;21339;-74
2023/01/14 10:31:28;;;;;;;6.45;3.50;;;14.70;96.20;;;;;;5054207;28;20036;-73
2023/01/14 10:33:54;;;;;;;5.97;3.35;;;15.30;95.80;;;;;;5060112;28;20750;-72
2023/01/14 10:36:23;;;;;;;7.32;3.13;;;15.20;96.00;;;;;;5057813;28;20499;-73
2023/01/14 10:38:50;;;;;;;6.78;3.28;;;15.10;95.80;;;;;;5058028;28;20105;-74
2023/01/14 10:41:48;;;;;;;5.32;2.45;;;15.40;95.50;;;;;;5057663;28;20057;-73
2023/01/14 10:44:03;;;;;;;6.00;2.88;;;15.40;95.50;;;;;;5058901;28;20092;-73
2023/01/14 10:46:29;;;;;;;7.47;3.60;;;15.20;95.70;;;;;;5066685;28;20451;-73
2023/01/14 10:49:04;;;;;;;7.72;3.70;;;15.90;95.70;;;;;;5056935;28;20025;-73
2023/01/14 10:51:35;;;;;;;5.63;3.38;;;15.90;94.80;;;;;;5061269;28;20539;-73
2023/01/14 10:54:15;;;;;;;5.80;3.20;;;16.30;94.60;;;;;;5060318;28;20601;-73
2023/01/14 10:56:48;;;;;;;7.15;3.45;;;16.30;94.60;;;;;;5055436;28;20036;-73
2023/01/14 10:59:24;;;;;;;;;;;16.40;94.40;;;;;;5060038;28;20036;-73
2023/01/14 11:01:50;;;;;;;6.68;3.40;;;17.00;94.10;;;;;;5064370;28;19913;-73
2023/01/14 11:04:16;;;;;;;6.53;3.38;;;17.20;93.90;;;;;;5060284;28;20044;-74
2023/01/14 11:06:44;;;;;;;6.20;3.58;;;16.70;94.20;;;;;;5049428;28;20033;-73
2023/01/14 11:09:26;;;;;;;6.40;3.25;;;17.40;93.80;;;;;;5061252;28;20037;-74
2023/01/14 11:11:52;;;;;;;6.30;3.05;;;16.60;94.10;;;;;;5064514;28;20124;-73
2023/01/14 11:14:31;;;;;;;5.82;3.40;;;17.30;93.80;;;;;;5044939;28;20115;-72
2023/01/14 11:17:26;;;;;;;6.15;2.72;;;18.00;93.30;;;;;;5059898;28;20037;-74
2023/01/14 11:20:23;;;;;;;7.18;3.20;;;16.90;93.60;;;;;;5063503;28;20028;-73
2023/01/14 11:23:01;;;;;;;6.20;4.20;;;17.50;93.50;;;;;;5063592;28;20489;-73
2023/01/14 11:25:27;;;;;;;6.90;4.32;;;17.70;93.60;;;;;;5065031;28;20024;-73
2023/01/14 11:27:54;;;;;;;6.40;3.20;;;18.00;93.40;;;;;;5066153;28;20017;-73
2023/01/14 11:30:23;;;;;;;8.18;3.65;;;17.00;93.50;;;;;;5066795;28;20028;-73
2023/01/14 11:32:51;;;;;;;6.47;3.15;;;16.80;93.90;;;;;;5061605;28;20133;-73
2023/01/14 11:35:26;;;;;;;7.25;3.95;;;16.90;94.20;;;;;;5060223;28;20036;-74
2023/01/14 11:37:53;;;;;;;9.38;4.05;;;18.00;93.70;;;;;;5062009;28;20033;-74
2023/01/14 11:43:22;;;;;;;7.05;4.43;;;18.50;92.80;;;;;;5064914;28;20425;-73
2023/01/14 11:46:10;;;;;;;7.78;4.40;;;19.20;92.40;;;;;;5069787;28;20068;-74
2023/01/14 11:48:36;;;;;;;7.45;4.28;;;19.00;92.50;;;;;;5069904;28;20084;-73
2023/01/14 11:51:04;;;;;;;6.88;4.20;;;19.40;92.30;;;;;;5060210;28;20160;-73
2023/01/14 11:53:50;;;;;;;8.75;4.18;;;19.30;91.90;;;;;;5067464;28;20499;-74
2023/01/14 11:56:19;;;;;;;7.50;4.18;;;19.70;91.60;;;;;;5064123;28;20037;-72
2023/01/14 11:58:46;;;;;;;6.10;3.83;;;20.10;91.30;;;;;;5062923;28;20063;-73
2023/01/14 12:01:18;;;;;;;;;;;20.10;91.20;;;;;;5066043;28;20431;-72
2023/01/14 12:04:19;;;;;;;7.00;4.45;;;20.60;90.80;;;;;;5068499;28;19908;-73
2023/01/14 12:06:52;;;;;;;8.25;4.05;;;20.40;90.90;;;;;;5059987;28;20847;-72
2023/01/14 12:09:36;;;;;;;9.30;4.82;;;20.40;90.80;;;;;;5063064;28;20098;-73
2023/01/14 12:12:10;;;;;;;7.55;4.85;;;21.30;90.30;;;;;;5068025;28;20051;-73
2023/01/14 12:17:37;;;;;;;7.38;4.80;;;20.70;89.50;;;;;;5063071;28;20048;-73
2023/01/14 12:20:11;;;;;;;9.32;4.85;;;21.00;90.00;;;;;;5060868;28;20036;-72
2023/01/14 12:22:40;;;;;;;8.50;4.68;;;21.00;89.50;;;;;;5044390;28;20082;-73
2023/01/14 12:25:28;;;;;;;9.38;5.30;;;20.70;90.00;;;;;;5065607;28;20021;-73
2023/01/14 12:28:03;;;;;;;7.35;4.32;;;21.00;89.20;;;;;;5060578;28;20032;-73
2023/01/14 12:30:39;;;;;;;9.10;4.57;;;20.40;90.00;;;;;;5060887;28;20391;-74
2023/01/14 12:33:23;;;;;;;9.32;4.43;;;20.80;88.90;;;;;;5063177;28;20028;-73
2023/01/14 12:35:49;;;;;;;7.70;4.63;;;21.40;89.00;;;;;;5062898;28;20039;-73
2023/01/14 12:47:33;;;;;;;6.22;4.15;;;22.70;86.60;;;;;;5058645;28;20048;-73
2023/01/14 12:50:02;;;;;;;9.63;4.57;;;23.20;84.90;;;;;;5064781;28;20020;-75
2023/01/14 12:52:32;;;;;;;9.18;4.85;;;23.60;85.00;;;;;;5059512;28;20571;-74
2023/01/14 12:54:59;;;;;;;8.43;4.28;;;23.20;84.90;;;;;;5055577;28;20025;-73
2023/01/14 12:57:26;;;;;;;8.32;4.45;;;24.30;83.80;;;;;;5058585;28;20391;-73
2023/01/14 13:00:03;;;;;;;8.48;4.18;;;23.30;84.50;;;;;;5064363;28;20024;-74
2023/01/14 13:02:42;;;;;;;7.90;4.53;;;22.80;85.00;;;;;;5062545;28;20178;-73
2023/01/14 13:05:10;;;;;;;7.68;4.18;;;23.10;85.40;;;;;;5057099;28;20029;-74
2023/01/14 13:07:47;;;;;;;5.88;3.60;;;24.40;83.30;;;;;;5061113;28;20029;-74
2023/01/14 13:10:28;;;;;;;7.65;4.20;;;24.00;82.40;;;;;;5058491;28;20048;-74
2023/01/14 13:12:55;;;;;;;8.75;4.10;;;24.50;82.90;;;;;;5046859;28;20036;-73
2023/01/14 13:15:29;;;;;;;7.35;4.03;;;24.90;82.20;;;;;;5065876;28;20033;-74
2023/01/14 13:18:04;;;;;;;6.15;3.97;;;25.50;81.60;;;;;;5062290;28;20033;-74
2023/01/14 13:20:30;;;;;;;7.03;4.07;;;23.90;80.90;;;;;;5061437;28;20033;-73
2023/01/14 13:23:00;;;;;;;6.22;3.72;;;24.80;82.00;;;;;;5076965;28;20085;-73
2023/01/14 13:25:35;;;;;;;8.18;3.85;;;25.40;81.00;;;;;;5062483;28;20035;-73
2023/01/14 13:28:12;;;;;;;7.40;3.95;;;26.10;80.30;;;;;;5059068;28;20044;-73
2023/01/14 13:31:12;;;;;;;11.43;5.15;;;26.30;79.50;;;;;;5059553;28;20479;-73
2023/01/14 13:33:39;;;;;;;8.30;4.90;;;25.80;79.90;;;;;;5046082;28;20105;-73
2023/01/14 13:36:08;;;;;;;9.23;4.97;;;24.90;79.90;;;;;;5064233;28;20036;-73
2023/01/14 13:38:39;;;;;;;8.38;4.90;;;25.70;79.40;;;;;;5066600;28;20017;-73
2023/01/14 13:41:07;;;;;;;11.60;6.32;;;24.20;81.10;;;;;;5055701;28;20028;-73
2023/01/14 13:43:52;;;;;;;9.13;5.32;;;23.60;82.40;;;;;;5062875;28;20082;-74
2023/01/14 13:46:27;;;;;;;9.00;5.00;;;24.00;82.20;;;;;;5062350;28;20040;-73
2023/01/14 13:49:00;;;;;;;9.98;5.43;;;25.30;81.10;;;;;;5049486;28;20036;-74